Time;durP1;ratioP1;P1;durP2;ratioP2;P2;SDS_P1;SDS_P2;PMS_P1;PMS_P2;Temp;Humidity;BMP_temperature;BMP_pressure;BME280_temperature;BME280_humidity;BME280_pressure;Samples;Min_cycle;Max_cycle;Signal;HPM_P1;HPM_P2
2022/05/11 00:01:48;;;;;;;26.15;12.90;;;;;;;14.21;87.68;99204.31;5078712;28;20033;-94
2022/05/11 00:04:15;;;;;;;24.27;11.70;;;;;;;14.00;88.67;99189.88;5086274;28;20040;-93
2022/05/11 00:06:43;;;;;;;27.85;11.68;;;;;;;13.88;87.89;99176.91;5098041;28;20078;-93
2022/05/11 00:09:11;;;;;;;24.42;11.15;;;;;;;13.92;88.25;99200.84;5081501;28;20044;-93
2022/05/11 00:11:37;;;;;;;30.52;11.48;;;;;;;13.83;89.03;99195.78;5077563;28;20036;-93
2022/05/11 00:14:04;;;;;;;23.95;11.10;;;;;;;13.66;88.96;99169.66;5076863;28;20493;-92
2022/05/11 00:16:31;;;;;;;27.65;12.10;;;;;;;13.70;89.35;99194.47;5077693;28;20040;-93
2022/05/11 00:18:57;;;;;;;23.30;12.32;;;;;;;13.59;89.81;99183.25;5077352;28;20140;-92
2022/05/11 00:21:24;;;;;;;22.73;10.32;;;;;;;13.60;90.22;99191.22;5077808;28;20072;-93
2022/05/11 00:23:52;;;;;;;24.25;11.00;;;;;;;13.52;90.02;99178.09;5078424;28;20048;-93
2022/05/11 00:26:19;;;;;;;21.05;10.02;;;;;;;13.59;89.46;99188.59;5090062;28;20064;-93
2022/05/11 00:28:46;;;;;;;21.65;9.90;;;;;;;13.51;89.53;99191.50;5077518;28;20074;-92
2022/05/11 00:31:13;;;;;;;25.10;11.18;;;;;;;13.29;89.37;99157.50;5075361;28;20211;-93
2022/05/11 00:33:47;;;;;;;23.08;10.55;;;;;;;13.30;89.85;99172.59;5077878;28;20029;-92
2022/05/11 00:36:17;;;;;;;22.10;9.88;;;;;;;13.23;90.31;99163.00;5079157;28;20068;-93
2022/05/11 00:38:44;;;;;;;19.65;9.77;;;;;;;13.34;90.45;99182.25;5076722;28;20098;-93
2022/05/11 00:41:12;;;;;;;23.10;10.55;;;;;;;13.18;91.15;99161.38;5077184;28;20041;-93
2022/05/11 00:43:43;;;;;;;24.13;10.65;;;;;;;13.38;90.13;99192.81;5089813;28;20463;-92
2022/05/11 00:46:18;;;;;;;23.30;10.25;;;;;;;13.19;89.40;99147.97;5076696;28;20052;-94
2022/05/11 00:51:55;;;;;;;26.13;10.52;;;;;;;13.22;90.86;99179.06;5091157;27;20400;-91
2022/05/11 00:54:23;;;;;;;19.80;9.93;;;;;;;13.08;91.16;99155.47;5091581;28;20077;-92
2022/05/11 00:56:51;;;;;;;19.63;10.60;;;;;;;13.08;91.38;99169.69;5091166;28;20043;-92
2022/05/11 00:59:22;;;;;;;20.83;10.40;;;;;;;13.07;92.01;99165.25;5091373;28;20048;-91
2022/05/11 01:01:48;;;;;;;24.80;11.45;;;;;;;13.12;91.96;99178.47;5089098;28;20044;-92
2022/05/11 01:04:17;;;;;;;24.13;10.80;;;;;;;13.07;92.75;99173.25;5091166;28;20040;-92
2022/05/11 01:06:43;;;;;;;22.33;11.88;;;;;;;13.04;92.25;99172.50;5090480;28;20083;-92
2022/05/11 01:09:12;;;;;;;25.52;11.70;;;;;;;13.11;91.15;99168.72;5090980;28;20062;-92
2022/05/11 01:11:40;;;;;;;25.88;11.70;;;;;;;12.93;92.72;99156.81;5091082;28;20051;-92
2022/05/11 01:14:09;;;;;;;25.50;11.18;;;;;;;13.07;92.27;99183.94;5089690;28;20051;-91
2022/05/11 01:16:36;;;;;;;24.92;10.57;;;;;;;13.11;92.36;99187.41;5090708;28;20127;-91
2022/05/11 01:19:04;;;;;;;22.58;12.05;;;;;;;13.08;92.15;99184.84;5088271;28;20036;-89
2022/05/11 01:21:39;;;;;;;24.33;12.07;;;;;;;13.10;92.79;99188.34;5090915;28;20347;-91
2022/05/11 01:24:31;;;;;;;26.42;12.15;;;;;;;13.08;92.97;99183.03;5090873;28;20273;-92
2022/05/11 01:26:57;;;;;;;24.88;12.05;;;;;;;13.04;92.86;99175.16;5091350;28;20111;-93
2022/05/11 01:29:23;;;;;;;25.10;12.30;;;;;;;13.01;92.45;99176.13;5091464;28;20066;-93
2022/05/11 01:31:49;;;;;;;28.67;13.75;;;;;;;12.94;93.02;99162.06;5091118;28;20044;-93
2022/05/11 01:34:21;;;;;;;26.48;13.48;;;;;;;13.03;94.06;99190.28;5090938;28;20552;-93
2022/05/11 01:36:50;;;;;;;29.98;13.68;;;;;;;12.87;93.73;99175.66;5091159;28;20040;-93
2022/05/11 01:39:16;;;;;;;29.00;13.55;;;;;;;12.74;94.23;99156.47;5090978;28;20039;-92
2022/05/11 01:41:51;;;;;;;25.67;12.85;;;;;;;12.87;94.40;99183.69;5086665;28;20561;-92
2022/05/11 01:44:18;;;;;;;28.98;13.40;;;;;;;12.83;94.33;99190.03;5090915;28;20064;-94
2022/05/11 01:46:46;;;;;;;24.52;12.68;;;;;;;12.86;94.15;99195.25;5090644;28;20044;-93
2022/05/11 01:49:12;;;;;;;30.50;13.75;;;;;;;12.77;94.75;99179.53;5090542;28;20047;-93
2022/05/11 01:51:37;;;;;;;30.27;13.10;;;;;;;12.65;95.58;99173.63;5090508;28;20044;-92
2022/05/11 01:54:04;;;;;;;25.73;13.02;;;;;;;12.68;95.02;99194.00;5090851;28;20048;-94
2022/05/11 01:56:29;;;;;;;26.40;12.40;;;;;;;12.54;95.06;99171.28;5091747;28;20105;-93
2022/05/11 01:58:57;;;;;;;29.23;12.55;;;;;;;12.63;95.21;99182.59;5091434;28;20033;-93
2022/05/11 02:01:25;;;;;;;28.80;13.35;;;;;;;12.51;96.18;99182.03;5087517;28;20041;-92
2022/05/11 02:03:51;;;;;;;25.35;13.23;;;;;;;12.35;96.78;99158.50;5078378;28;20044;-94
2022/05/11 02:09:17;;;;;;;27.83;13.20;;;;;;;12.44;96.84;99183.13;5107403;27;20375;-93
2022/05/11 02:11:43;;;;;;;26.15;12.40;;;;;;;12.48;97.79;99182.13;5074156;28;20048;-90
2022/05/11 02:14:09;;;;;;;28.52;13.90;;;;;;;12.49;96.47;99167.88;5073706;28;20103;-93
2022/05/11 02:16:35;;;;;;;29.25;14.75;;;;;;;12.49;96.54;99170.53;5073976;28;20124;-91
2022/05/11 02:19:01;;;;;;;30.05;13.70;;;;;;;12.48;95.98;99174.09;5073761;28;20060;-91
2022/05/11 02:21:27;;;;;;;29.15;12.93;;;;;;;12.49;95.78;99194.56;5073315;28;20045;-91
2022/05/11 02:23:53;;;;;;;27.88;12.98;;;;;;;12.23;96.93;99186.38;5073277;28;20502;-93
2022/05/11 02:26:20;;;;;;;28.50;13.25;;;;;;;12.31;98.14;99173.72;5072132;28;20040;-91
2022/05/11 02:28:47;;;;;;;25.75;13.73;;;;;;;12.50;96.94;99188.28;5069119;28;20037;-91
2022/05/11 02:31:13;;;;;;;27.85;13.32;;;;;;;12.53;96.47;99184.66;5071891;28;20044;-92
2022/05/11 02:33:39;;;;;;;27.98;13.70;;;;;;;12.42;96.63;99165.41;5071703;28;20044;-93
2022/05/11 02:36:05;;;;;;;31.55;14.80;;;;;;;12.40;96.53;99165.44;5072253;28;20079;-93
2022/05/11 02:38:34;;;;;;;31.98;14.45;;;;;;;12.52;95.87;99193.59;5072417;28;20047;-93
2022/05/11 02:41:00;;;;;;;39.13;14.05;;;;;;;12.45;95.29;99178.69;5071816;28;20045;-93
2022/05/11 02:43:28;;;;;;;31.75;14.63;;;;;;;12.28;95.91;99172.00;5071790;28;20036;-93
2022/05/11 02:45:54;;;;;;;30.20;14.15;;;;;;;12.18;95.81;99175.84;5071955;28;20091;-92
2022/05/11 02:48:22;;;;;;;27.73;13.20;;;;;;;12.16;95.91;99179.47;5071430;28;20032;-92
2022/05/11 02:50:50;;;;;;;32.25;13.45;;;;;;;12.14;96.08;99190.16;5072149;28;20048;-89
2022/05/11 02:53:16;;;;;;;31.25;14.98;;;;;;;11.99;96.86;99182.56;5071661;28;20044;-93
2022/05/11 02:55:44;;;;;;;27.13;13.45;;;;;;;11.95;98.15;99189.78;5071610;28;20049;-92
2022/05/11 02:58:10;;;;;;;32.25;15.00;;;;;;;11.97;99.42;99201.28;5071535;28;20079;-92
2022/05/11 03:00:39;;;;;;;30.40;14.68;;;;;;;11.91;99.38;99198.78;5071640;28;20044;-93
2022/05/11 03:03:06;;;;;;;29.60;14.90;;;;;;;11.99;98.20;99210.13;5071441;28;20119;-91
2022/05/11 03:05:32;;;;;;;32.15;14.77;;;;;;;11.85;99.34;99202.44;5071169;28;20041;-92
2022/05/11 03:07:58;;;;;;;32.33;15.13;;;;;;;11.87;100.00;99210.38;5070288;28;20136;-93
2022/05/11 03:10:24;;;;;;;31.25;14.38;;;;;;;11.84;99.97;99208.69;5071363;28;20048;-92
2022/05/11 03:12:50;;;;;;;32.78;15.30;;;;;;;11.71;99.64;99197.47;5071352;28;20487;-92
2022/05/11 03:15:16;;;;;;;30.00;14.30;;;;;;;11.85;98.49;99206.88;5071262;28;20053;-92
2022/05/11 03:17:44;;;;;;;27.63;14.18;;;;;;;11.77;98.97;99208.84;5071650;28;20044;-93
2022/05/11 03:20:10;;;;;;;34.78;15.70;;;;;;;11.76;98.51;99213.31;5060092;28;20033;-93
2022/05/11 03:22:37;;;;;;;32.67;14.57;;;;;;;11.80;98.52;99220.34;5057688;28;20495;-92
2022/05/11 03:25:04;;;;;;;29.40;14.43;;;;;;;11.77;98.06;99201.72;5057467;28;20098;-93
2022/05/11 03:27:30;;;;;;;30.75;14.40;;;;;;;11.74;99.31;99217.81;5057639;28;20502;-92
2022/05/11 03:29:56;;;;;;;25.77;12.90;;;;;;;11.71;99.24;99220.56;5057920;28;20091;-93
2022/05/11 03:35:21;;;;;;;28.33;13.57;;;;;;;11.46;99.78;99212.28;5113611;27;20366;-92
2022/05/11 03:37:47;;;;;;;33.13;14.30;;;;;;;11.47;100.00;99228.22;5113343;28;20056;-90
2022/05/11 03:40:13;;;;;;;30.73;13.85;;;;;;;11.46;100.00;99217.59;5112337;28;20052;-91
2022/05/11 03:42:40;;;;;;;27.70;13.55;;;;;;;11.33;100.00;99205.50;5111938;28;20464;-91
2022/05/11 03:45:09;;;;;;;28.77;13.40;;;;;;;11.33;99.79;99209.03;5111707;28;20063;-92
2022/05/11 03:47:35;;;;;;;;;;;;;;;11.39;100.00;99234.63;5111213;28;20123;-92
2022/05/11 03:50:01;;;;;;;26.63;13.57;;;;;;;11.32;100.00;99223.25;5111818;28;20022;-91
2022/05/11 03:52:28;;;;;;;26.90;13.35;;;;;;;11.31;100.00;99219.69;5111826;28;20042;-92
2022/05/11 03:54:54;;;;;;;31.30;14.63;;;;;;;11.21;100.00;99211.94;5111574;28;20081;-93
2022/05/11 03:57:20;;;;;;;30.95;15.30;;;;;;;11.19;100.00;99219.09;5112048;28;20044;-93
2022/05/11 03:59:46;;;;;;;30.75;14.98;;;;;;;11.30;100.00;99236.59;5111759;28;20036;-92
2022/05/11 04:02:12;;;;;;;31.27;15.57;;;;;;;11.33;100.00;99232.09;5111475;28;20117;-92
2022/05/11 04:04:37;;;;;;;28.85;13.95;;;;;;;11.22;100.00;99224.38;5111694;28;20358;-92
2022/05/11 04:07:04;;;;;;;32.72;13.90;;;;;;;11.15;100.00;99212.97;5111573;28;20401;-92
2022/05/11 04:09:31;;;;;;;31.80;14.60;;;;;;;11.31;100.00;99241.00;5111642;28;20036;-93
2022/05/11 04:11:57;;;;;;;29.48;13.50;;;;;;;11.23;100.00;99229.66;5111658;28;20039;-91
2022/05/11 04:14:23;;;;;;;27.58;13.25;;;;;;;11.41;99.58;99232.81;5110684;28;20032;-91
2022/05/11 04:16:53;;;;;;;30.38;13.77;;;;;;;11.49;99.47;99225.50;5110361;28;20074;-91
2022/05/11 04:19:19;;;;;;;35.63;15.43;;;;;;;11.51;100.00;99234.34;5110369;28;20040;-92
2022/05/11 04:21:45;;;;;;;33.72;15.75;;;;;;;11.52;100.00;99230.78;5110281;28;20093;-92
2022/05/11 04:24:11;;;;;;;35.17;16.77;;;;;;;11.61;100.00;99241.22;5110322;28;20454;-92
2022/05/11 04:26:38;;;;;;;33.17;16.90;;;;;;;11.66;100.00;99241.97;5111056;28;20036;-92
2022/05/11 04:29:04;;;;;;;25.83;14.65;;;;;;;11.71;100.00;99237.41;5111063;28;20124;-93
2022/05/11 04:31:30;;;;;;;30.77;14.55;;;;;;;11.78;100.00;99243.47;5111099;28;20044;-92
2022/05/11 04:33:56;;;;;;;32.38;15.05;;;;;;;11.78;100.00;99247.94;5110604;28;20105;-91
2022/05/11 04:36:21;;;;;;;31.80;16.13;;;;;;;11.77;100.00;99240.84;5110820;28;20031;-93
2022/05/11 04:38:47;;;;;;;29.60;14.90;;;;;;;11.82;99.76;99250.47;5111042;28;20132;-94
2022/05/11 04:41:13;;;;;;;34.13;17.45;;;;;;;11.82;99.42;99236.25;5110776;28;20048;-92
2022/05/11 04:43:40;;;;;;;29.83;15.20;;;;;;;11.81;98.37;99237.19;5110879;28;20074;-91
2022/05/11 04:46:06;;;;;;;31.75;16.45;;;;;;;11.83;99.22;99243.34;5101055;28;20050;-91
2022/05/11 04:48:32;;;;;;;40.13;16.58;;;;;;;11.95;99.32;99258.19;5097341;28;20397;-91
2022/05/11 04:51:00;;;;;;;37.50;17.17;;;;;;;11.96;98.68;99246.63;5098147;28;20086;-93
2022/05/11 04:53:26;;;;;;;29.85;15.13;;;;;;;11.89;98.96;99235.25;5097105;28;20040;-91
2022/05/11 04:55:52;;;;;;;29.60;16.52;;;;;;;12.01;99.33;99248.25;5096919;28;20040;-91
2022/05/11 04:58:17;;;;;;;35.00;16.63;;;;;;;12.09;99.36;99248.06;5096966;28;20071;-93
2022/05/11 05:00:44;;;;;;;33.20;16.92;;;;;;;12.11;98.73;99249.78;5097091;28;20066;-92
2022/05/11 05:03:12;;;;;;;37.25;17.42;;;;;;;12.47;96.92;99251.50;5091045;28;20047;-89
2022/05/11 05:05:38;;;;;;;33.65;17.10;;;;;;;12.83;93.80;99246.06;5095477;28;20044;-89
2022/05/11 05:08:04;;;;;;;45.40;16.05;;;;;;;13.23;92.07;99247.56;5094884;28;20036;-91
2022/05/11 05:10:30;;;;;;;36.67;17.08;;;;;;;13.49;90.47;99249.50;5096348;28;20032;-93
2022/05/11 05:13:01;;;;;;;37.38;16.23;;;;;;;13.88;89.67;99251.78;5096549;28;20054;-91
2022/05/11 05:15:27;;;;;;;31.98;14.98;;;;;;;14.21;88.09;99252.47;5096737;28;20055;-92
2022/05/11 05:17:54;;;;;;;32.65;15.80;;;;;;;14.38;85.25;99241.19;5096510;28;20062;-93
2022/05/11 05:20:21;;;;;;;28.88;15.00;;;;;;;14.65;84.37;99259.91;5095854;28;20131;-92
2022/05/11 05:22:47;;;;;;;39.67;18.70;;;;;;;14.72;83.31;99262.28;5096657;28;20060;-92
2022/05/11 05:25:12;;;;;;;36.38;20.58;;;;;;;14.70;82.45;99237.41;5096788;28;20048;-92
2022/05/11 05:27:38;;;;;;;30.50;16.45;;;;;;;14.92;82.42;99244.63;5096267;28;20040;-92
2022/05/11 05:33:05;;;;;;;26.42;13.43;;;;;;;15.70;78.63;99268.41;5133086;27;20743;-93
2022/05/11 05:35:30;;;;;;;28.40;15.30;;;;;;;15.85;76.40;99258.88;5132745;27;20039;-93
2022/05/11 05:37:58;;;;;;;25.25;14.32;;;;;;;15.94;76.22;99260.31;5132467;27;20061;-94
2022/05/11 05:40:24;;;;;;;26.25;13.55;;;;;;;16.20;75.41;99261.94;5132310;27;20450;-93
2022/05/11 05:42:49;;;;;;;30.13;16.25;;;;;;;16.26;74.59;99268.84;5132033;27;20039;-93
2022/05/11 05:45:15;;;;;;;29.60;14.57;;;;;;;16.16;74.25;99250.47;5131819;27;20048;-94
2022/05/11 05:47:44;;;;;;;27.25;14.68;;;;;;;16.41;73.95;99271.75;5131489;27;20043;-92
2022/05/11 05:50:11;;;;;;;27.27;13.82;;;;;;;16.59;72.63;99262.03;5130658;28;20040;-93
2022/05/11 05:52:37;;;;;;;26.83;14.13;;;;;;;16.65;72.58;99277.00;5134854;27;20387;-94
2022/05/11 05:55:03;;;;;;;28.83;14.18;;;;;;;16.70;72.01;99266.94;5132227;27;20130;-91
2022/05/11 05:57:29;;;;;;;25.38;13.52;;;;;;;16.82;72.07;99278.97;5133436;27;20067;-94
2022/05/11 05:59:55;;;;;;;25.10;12.93;;;;;;;16.80;72.09;99264.72;5133589;27;20031;-93
2022/05/11 06:02:21;;;;;;;25.60;13.30;;;;;;;16.97;71.68;99282.78;5136436;27;20092;-94
2022/05/11 06:04:50;;;;;;;28.20;14.00;;;;;;;16.92;71.94;99293.75;5133158;27;20043;-91
2022/05/11 06:07:19;;;;;;;27.95;13.98;;;;;;;16.43;73.74;99285.09;5134240;28;20044;-91
2022/05/11 06:09:45;;;;;;;24.00;12.52;;;;;;;16.42;74.25;99264.59;5133170;27;20045;-94
2022/05/11 06:12:14;;;;;;;24.85;12.77;;;;;;;16.66;73.10;99259.94;5134465;27;20443;-91
2022/05/11 06:14:41;;;;;;;23.80;14.15;;;;;;;16.34;75.27;99280.13;5133353;27;20519;-93
2022/05/11 06:17:12;;;;;;;30.95;14.82;;;;;;;16.34;75.05;99286.38;5132535;27;20039;-92
2022/05/11 06:19:38;;;;;;;30.17;13.45;;;;;;;16.29;74.89;99287.53;5130747;28;20488;-92
2022/05/11 06:22:05;;;;;;;31.05;15.90;;;;;;;16.20;75.00;99283.41;5131340;27;20134;-90
2022/05/11 06:24:32;;;;;;;24.77;14.55;;;;;;;16.13;75.73;99276.53;5131232;27;20523;-92
2022/05/11 06:26:58;;;;;;;31.05;15.98;;;;;;;16.37;74.95;99269.25;5132014;27;20036;-93
2022/05/11 06:29:24;;;;;;;25.83;14.63;;;;;;;16.55;73.76;99279.22;5133845;28;20054;-95
2022/05/11 06:31:50;;;;;;;27.98;14.75;;;;;;;16.71;72.63;99265.13;5133420;27;20058;-94
2022/05/11 06:34:16;;;;;;;25.30;14.27;;;;;;;16.51;72.29;99268.69;5132725;27;20047;-92
2022/05/11 06:36:42;;;;;;;35.45;23.65;;;;;;;16.70;72.33;99285.75;5131043;27;20558;-91
2022/05/11 06:39:08;;;;;;;32.28;21.00;;;;;;;17.00;74.02;99294.28;5131103;27;20064;-92
2022/05/11 06:41:35;;;;;;;36.42;21.20;;;;;;;17.33;71.16;99280.25;5131507;27;20039;-93
2022/05/11 06:44:08;;;;;;;29.58;17.33;;;;;;;17.64;69.35;99284.16;5119719;27;20044;-94
2022/05/11 06:46:55;;;;;;;27.60;15.57;;;;;;;17.97;67.56;99284.38;5120550;28;20040;-94
2022/05/11 06:49:28;;;;;;;28.20;14.88;;;;;;;17.92;67.24;99251.44;5118627;28;20035;-94
2022/05/11 06:51:58;;;;;;;24.05;13.35;;;;;;;17.97;69.62;99283.50;5118925;28;20035;-94
2022/05/11 07:00:30;;;;;;;29.10;15.00;;;;;;;18.11;67.40;99290.88;5072247;27;2073584;-94
2022/05/11 07:02:56;;;;;;;25.63;13.48;;;;;;;18.31;66.86;99280.00;5118606;28;20040;-92
2022/05/11 07:05:23;;;;;;;29.00;13.32;;;;;;;18.57;65.81;99291.28;5117755;28;20040;-92
2022/05/11 07:07:51;;;;;;;26.83;12.98;;;;;;;18.81;64.78;99259.53;5118234;28;20040;-93
2022/05/11 07:10:17;;;;;;;26.40;13.57;;;;;;;18.80;64.75;99280.22;5129960;28;20051;-92
2022/05/11 07:12:46;;;;;;;26.13;13.43;;;;;;;18.91;63.78;99271.56;5119811;28;20077;-95
2022/05/11 07:15:13;;;;;;;25.30;13.48;;;;;;;18.96;62.46;99250.63;5120565;28;20094;-94
2022/05/11 07:17:42;;;;;;;28.13;12.98;;;;;;;19.41;62.65;99275.13;5118700;28;20043;-92
2022/05/11 07:20:11;;;;;;;24.85;12.88;;;;;;;19.46;61.73;99282.03;5128842;28;20035;-95
2022/05/11 07:22:38;;;;;;;29.15;13.23;;;;;;;19.60;61.26;99281.25;5127469;28;20063;-93
2022/05/11 07:25:05;;;;;;;24.92;12.77;;;;;;;19.61;61.58;99255.16;5118990;28;20039;-91
2022/05/11 07:27:31;;;;;;;22.02;12.48;;;;;;;19.87;60.53;99276.16;5120421;28;20069;-93
2022/05/11 07:29:57;;;;;;;22.27;12.57;;;;;;;19.99;60.36;99276.41;5120824;28;20118;-95
2022/05/11 07:32:23;;;;;;;22.05;11.68;;;;;;;20.10;60.05;99263.16;5118129;28;20534;-92
2022/05/11 07:34:51;;;;;;;26.52;12.55;;;;;;;20.27;60.29;99264.88;5122938;28;20046;-95
2022/05/11 07:37:17;;;;;;;19.97;11.93;;;;;;;20.39;59.71;99280.34;5122751;28;20396;-92
2022/05/11 07:39:43;;;;;;;24.35;13.23;;;;;;;20.45;58.48;99269.19;5120034;28;20284;-92
2022/05/11 07:42:09;;;;;;;24.83;11.57;;;;;;;20.40;59.24;99263.19;5126693;28;20050;-93
2022/05/11 07:44:35;;;;;;;21.15;12.05;;;;;;;20.40;59.32;99246.09;5128887;28;20039;-92
2022/05/11 07:47:01;;;;;;;21.45;12.18;;;;;;;20.49;58.56;99245.53;5119213;28;20088;-93
2022/05/11 07:49:27;;;;;;;24.95;13.55;;;;;;;20.66;57.46;99261.63;5122765;28;20115;-93
2022/05/11 07:51:54;;;;;;;23.83;12.57;;;;;;;20.77;56.96;99247.47;5124398;28;20059;-92
2022/05/11 07:54:20;;;;;;;24.42;13.77;;;;;;;20.31;57.48;99255.63;5117186;28;20036;-92
2022/05/11 07:59:56;;;;;;;24.77;12.35;;;;;;;20.14;59.59;99263.84;5152241;27;20728;-93
2022/05/11 08:02:26;;;;;;;26.65;12.63;;;;;;;20.23;58.40;99256.09;5150034;27;20043;-93
2022/05/11 08:04:53;;;;;;;25.45;13.15;;;;;;;20.49;58.66;99259.94;5152445;27;20039;-95
2022/05/11 08:07:22;;;;;;;25.67;12.40;;;;;;;20.85;57.69;99264.09;5152229;27;20042;-94
2022/05/11 08:09:48;;;;;;;21.17;12.10;;;;;;;21.13;57.36;99259.69;5152415;27;20063;-93
2022/05/11 08:12:13;;;;;;;24.85;13.40;;;;;;;21.35;54.89;99259.19;5151533;27;20077;-91
2022/05/11 08:14:39;;;;;;;24.30;11.77;;;;;;;21.52;54.25;99255.44;5151498;27;20665;-93
2022/05/11 08:17:06;;;;;;;24.48;13.07;;;;;;;21.48;56.26;99256.59;5151729;27;20530;-92
2022/05/11 08:19:32;;;;;;;26.23;13.30;;;;;;;21.29;56.69;99267.69;5151757;27;20110;-93
2022/05/11 08:21:58;;;;;;;22.13;12.00;;;;;;;21.48;55.98;99245.78;5151545;27;20485;-93
2022/05/11 08:24:26;;;;;;;24.17;13.13;;;;;;;21.58;55.15;99244.22;5151916;27;20059;-92
2022/05/11 08:26:51;;;;;;;26.58;13.30;;;;;;;21.72;54.88;99249.59;5153600;27;20082;-96
2022/05/11 08:35:20;;;;;;;37.03;16.05;;;;;;;22.20;55.57;99265.41;5090817;27;20393;-91
2022/05/11 08:37:47;;;;;;;30.02;13.80;;;;;;;21.86;55.90;99272.19;5090344;28;20044;-91
2022/05/11 08:40:20;;;;;;;25.00;12.77;;;;;;;22.08;55.38;99263.53;5090521;28;20044;-92
2022/05/11 08:42:46;;;;;;;21.42;12.90;;;;;;;22.33;54.50;99249.22;5087588;28;20094;-90
2022/05/11 08:45:12;;;;;;;22.75;12.10;;;;;;;22.54;54.31;99264.03;5089858;28;20032;-90
2022/05/11 08:47:44;;;;;;;27.77;11.98;;;;;;;22.74;52.96;99268.06;5090500;28;20040;-91
2022/05/11 08:50:13;;;;;;;23.20;11.52;;;;;;;22.77;52.72;99261.59;5089532;28;20127;-91
2022/05/11 08:52:50;;;;;;;24.08;13.20;;;;;;;22.51;53.37;99268.78;5090059;28;20036;-89
2022/05/11 08:55:30;;;;;;;24.92;12.32;;;;;;;22.16;54.77;99253.03;5089592;28;20391;-89
2022/05/11 08:57:57;;;;;;;21.92;12.07;;;;;;;22.09;53.89;99270.69;5089215;28;20440;-90
2022/05/11 09:00:24;;;;;;;29.60;12.57;;;;;;;22.31;55.20;99268.28;5090691;28;20040;-92
2022/05/11 09:02:55;;;;;;;21.83;11.52;;;;;;;22.70;53.67;99263.81;5090076;28;20038;-91
2022/05/11 09:05:23;;;;;;;18.95;11.88;;;;;;;22.94;52.87;99252.25;5089318;28;20036;-92
2022/05/11 09:07:53;;;;;;;20.55;11.77;;;;;;;23.16;52.05;99247.09;5090216;28;20060;-92
2022/05/11 09:10:23;;;;;;;21.25;11.63;;;;;;;23.23;52.33;99252.06;5089181;28;20047;-90
2022/05/11 09:12:52;;;;;;;24.35;11.98;;;;;;;23.02;52.55;99246.31;5088098;28;20060;-92
2022/05/11 09:15:19;;;;;;;26.45;11.38;;;;;;;23.29;52.21;99241.66;5090781;28;20439;-91
2022/05/11 09:17:44;;;;;;;21.42;12.30;;;;;;;23.50;50.65;99252.78;5091007;28;20063;-93
2022/05/11 09:20:12;;;;;;;25.85;11.55;;;;;;;23.24;51.47;99229.38;5091095;28;20123;-91
2022/05/11 09:22:41;;;;;;;21.37;12.10;;;;;;;22.79;52.62;99262.31;5089831;28;20040;-91
2022/05/11 09:25:17;;;;;;;24.20;12.82;;;;;;;22.64;52.71;99256.16;5089216;28;20037;-93
2022/05/11 09:27:44;;;;;;;21.17;12.52;;;;;;;22.96;52.57;99237.59;5089746;28;20040;-92
2022/05/11 09:30:18;;;;;;;28.90;12.38;;;;;;;23.24;51.44;99256.50;5089278;28;20047;-92
2022/05/11 09:32:44;;;;;;;23.02;11.32;;;;;;;23.37;51.08;99243.78;5088449;28;20040;-90
2022/05/11 09:35:23;;;;;;;23.40;11.60;;;;;;;23.21;50.30;99241.31;5088510;28;20086;-91
2022/05/11 09:38:02;;;;;;;23.60;11.45;;;;;;;23.43;51.61;99228.91;5086208;28;20094;-91
2022/05/11 09:40:31;;;;;;;21.45;11.75;;;;;;;23.62;49.78;99232.03;5088578;28;20044;-89
2022/05/11 09:42:59;;;;;;;19.08;10.90;;;;;;;23.68;50.72;99239.72;5087793;28;20082;-92
2022/05/11 09:45:36;;;;;;;17.50;10.98;;;;;;;24.02;50.18;99242.66;5081469;28;20051;-92
2022/05/11 09:48:02;;;;;;;19.27;10.32;;;;;;;24.17;46.39;99235.19;5073601;28;20052;-90
2022/05/11 09:50:29;;;;;;;26.38;11.13;;;;;;;24.54;46.72;99237.84;5071676;28;20112;-92
2022/05/11 09:53:07;;;;;;;20.83;10.38;;;;;;;24.74;44.81;99229.00;5076482;28;20044;-93
2022/05/11 09:55:35;;;;;;;18.50;10.05;;;;;;;24.71;44.51;99222.94;5076640;28;20087;-92
2022/05/11 09:58:06;;;;;;;20.05;10.68;;;;;;;24.78;44.70;99225.03;5076317;28;20375;-92
2022/05/11 10:00:35;;;;;;;17.95;9.57;;;;;;;24.95;44.45;99225.59;5076810;28;20032;-91
2022/05/11 10:03:06;;;;;;;17.30;9.77;;;;;;;25.13;43.69;99215.94;5070297;28;20119;-92
2022/05/11 10:05:38;;;;;;;18.92;9.55;;;;;;;25.14;41.45;99219.56;5075599;28;20049;-94
2022/05/11 10:08:12;;;;;;;23.70;10.32;;;;;;;24.37;42.77;99231.81;5074037;28;20529;-92
2022/05/11 10:10:43;;;;;;;20.83;8.65;;;;;;;24.80;43.78;99224.94;5075710;28;20106;-93
2022/05/11 10:13:16;;;;;;;17.42;8.65;;;;;;;24.94;42.57;99208.41;5078086;28;20029;-94
2022/05/11 10:21:50;;;;;;;14.77;8.18;;;;;;;25.16;37.69;99207.53;5091750;27;20382;-95
2022/05/11 10:24:29;;;;;;;12.18;7.78;;;;;;;25.09;38.20;99192.72;5092272;28;20044;-93
2022/05/11 10:27:00;;;;;;;12.90;7.85;;;;;;;24.15;37.92;99213.56;5091532;28;20052;-93
2022/05/11 10:29:43;;;;;;;10.88;7.22;;;;;;;24.34;37.20;99212.19;5089672;28;20044;-94
2022/05/11 10:32:14;;;;;;;14.40;8.27;;;;;;;24.66;39.93;99206.09;5091698;28;20512;-94
2022/05/11 10:34:52;;;;;;;13.85;8.70;;;;;;;24.87;40.67;99196.25;5093007;28;20071;-93
2022/05/11 10:37:25;;;;;;;;;;;;;;;24.86;38.55;99208.13;5093543;28;20043;-95
2022/05/11 10:40:03;;;;;;;14.30;8.32;;;;;;;24.19;39.03;99198.78;5087629;28;20341;-95
2022/05/11 10:42:34;;;;;;;13.07;8.02;;;;;;;24.33;39.25;99191.41;5087708;28;20588;-92
2022/05/11 10:45:13;;;;;;;12.98;7.75;;;;;;;24.50;37.87;99174.69;5091488;28;20063;-92
2022/05/11 10:48:03;;;;;;;13.95;7.40;;;;;;;24.85;37.65;99184.63;5090070;28;20051;-91
2022/05/11 10:50:35;;;;;;;13.10;7.53;;;;;;;25.12;37.49;99173.41;5089704;28;20036;-91
2022/05/11 10:53:12;;;;;;;16.27;8.05;;;;;;;25.31;37.33;99193.69;5089065;28;20574;-90
2022/05/11 10:55:52;;;;;;;12.88;7.10;;;;;;;24.89;33.97;99185.25;5088976;28;20135;-91
2022/05/11 10:58:36;;;;;;;13.27;6.88;;;;;;;25.06;34.46;99167.59;5087215;28;20037;-92
2022/05/11 11:01:08;;;;;;;12.77;7.15;;;;;;;25.31;35.54;99164.66;5087899;28;20032;-93
2022/05/11 11:04:05;;;;;;;9.23;5.97;;;;;;;25.63;32.38;99177.44;5088205;28;20165;-94
2022/05/11 11:10:28;;;;;;;9.88;5.60;;;;;;;25.44;30.32;99164.50;5109216;27;20373;-94
2022/05/11 11:13:22;;;;;;;9.40;5.95;;;;;;;25.26;30.52;99187.78;5107910;28;20056;-95
2022/05/11 11:15:50;;;;;;;9.10;5.53;;;;;;;25.48;31.13;99185.03;5102587;28;20044;-91
2022/05/11 11:18:22;;;;;;;11.18;6.22;;;;;;;25.54;30.16;99157.28;5108827;28;20122;-91
2022/05/11 11:20:49;;;;;;;10.02;6.05;;;;;;;25.75;29.91;99172.84;5110390;28;20177;-92
2022/05/11 11:23:31;;;;;;;9.50;5.63;;;;;;;25.84;32.77;99182.97;5110169;28;20035;-92
2022/05/11 11:26:00;;;;;;;9.73;6.25;;;;;;;25.54;32.35;99173.63;5110323;28;20040;-92
2022/05/11 11:28:27;;;;;;;8.98;6.20;;;;;;;25.33;32.20;99175.38;5110729;28;20401;-91
2022/05/11 11:31:18;;;;;;;11.77;6.30;;;;;;;25.51;32.25;99175.75;5110995;28;20804;-92
2022/05/11 11:34:19;;;;;;;11.20;5.97;;;;;;;25.43;31.39;99176.38;5109107;28;20047;-95
2022/05/11 11:36:45;;;;;;;10.70;5.63;;;;;;;25.49;32.37;99178.59;5109445;28;20043;-94
2022/05/11 11:39:32;;;;;;;9.43;6.00;;;;;;;25.60;33.56;99173.13;5111180;28;20036;-92
2022/05/11 11:42:05;;;;;;;11.82;6.82;;;;;;;24.85;35.66;99159.28;5108763;28;20524;-92
2022/05/11 11:44:39;;;;;;;14.95;6.82;;;;;;;25.26;36.48;99163.28;5108324;28;20046;-90
2022/05/11 11:47:33;;;;;;;13.15;7.43;;;;;;;25.66;36.55;99163.59;5109921;28;20107;-93
2022/05/11 11:49:58;;;;;;;12.93;7.80;;;;;;;25.93;35.12;99144.06;5110605;28;20118;-92
2022/05/11 11:52:34;;;;;;;14.75;7.40;;;;;;;26.05;35.99;99146.78;5111045;28;20123;-93
2022/05/11 11:55:00;;;;;;;15.25;7.15;;;;;;;25.69;35.74;99141.53;5110381;28;20048;-92
2022/05/11 11:57:29;;;;;;;12.32;6.90;;;;;;;25.88;35.86;99129.09;5109495;28;20047;-92
2022/05/11 11:59:57;;;;;;;14.18;6.93;;;;;;;26.14;33.86;99146.84;5109875;28;20127;-93
2022/05/11 12:02:28;;;;;;;13.13;6.85;;;;;;;26.25;35.47;99140.47;5109905;28;20035;-91
2022/05/11 12:05:03;;;;;;;12.07;7.20;;;;;;;26.28;33.50;99139.34;5107931;28;20042;-91